createdAt,value
2022-09-15T00:01:44.835Z,1.20
2022-09-15T00:04:13.387Z,1.10
2022-09-15T00:06:42.385Z,1.10
2022-09-15T00:09:11.937Z,1.20
2022-09-15T00:11:40.748Z,1.10
2022-09-15T00:14:09.937Z,1.10
2022-09-15T00:16:39.337Z,1.10
2022-09-15T00:19:09.037Z,1.20
2022-09-15T00:21:41.280Z,1.15
2022-09-15T00:24:10.479Z,1.10
2022-09-15T00:26:39.327Z,1.00
2022-09-15T00:29:07.419Z,1.17
2022-09-15T00:31:55.588Z,1.08
2022-09-15T00:34:23.675Z,1.17
2022-09-15T00:36:53.448Z,1.17
2022-09-15T00:39:22.379Z,1.00
2022-09-15T00:41:51.007Z,1.00
2022-09-15T00:44:37.003Z,0.90
2022-09-15T00:47:19.383Z,1.00
2022-09-15T00:49:58.365Z,0.77
2022-09-15T00:52:46.396Z,0.73
2022-09-15T00:55:43.302Z,0.70
2022-09-15T00:58:50.193Z,0.80
2022-09-15T01:01:18.518Z,0.85
2022-09-15T01:03:46.913Z,0.60
2022-09-15T01:06:36.603Z,0.70
2022-09-15T01:09:25.368Z,0.80
2022-09-15T01:11:53.618Z,0.60
2022-09-15T01:14:23.175Z,0.80
2022-09-15T01:17:15.371Z,0.80
2022-09-15T01:20:10.509Z,0.65
2022-09-15T01:22:51.574Z,0.65
2022-09-15T01:25:48.588Z,0.73
2022-09-15T01:28:47.555Z,0.50
2022-09-15T01:32:15.331Z,0.60
2022-09-15T01:35:13.568Z,0.73
2022-09-15T01:38:04.005Z,0.65
2022-09-15T01:41:19.530Z,0.90
2022-09-15T01:44:26.453Z,0.70
2022-09-15T01:47:01.587Z,0.70
2022-09-15T01:49:51.019Z,0.75
2022-09-15T01:52:22.906Z,0.70
2022-09-15T01:54:58.079Z,0.80
2022-09-15T01:57:28.597Z,0.75
2022-09-15T01:59:57.720Z,0.53
2022-09-15T02:02:39.594Z,0.90
2022-09-15T02:05:20.688Z,0.95
2022-09-15T02:08:10.076Z,0.73
2022-09-15T02:10:47.199Z,0.80
2022-09-15T02:13:58.393Z,1.40
2022-09-15T02:16:35.449Z,0.80
2022-09-15T02:19:34.161Z,0.80
2022-09-15T02:22:17.861Z,0.80
2022-09-15T02:25:05.860Z,0.63
2022-09-15T02:27:41.163Z,1.10
2022-09-15T02:30:14.544Z,0.68
2022-09-15T02:32:56.534Z,0.60
2022-09-15T02:35:28.658Z,0.80
2022-09-15T02:37:57.478Z,0.70
2022-09-15T02:40:26.545Z,0.80
2022-09-15T02:43:03.769Z,0.75
2022-09-15T02:45:32.124Z,0.68
2022-09-15T02:48:00.326Z,0.77
2022-09-15T02:50:28.813Z,1.33
2022-09-15T02:52:57.884Z,0.85
2022-09-15T02:55:29.489Z,0.90
2022-09-15T02:57:58.909Z,0.70
2022-09-15T03:00:28.475Z,0.90
2022-09-15T03:02:57.117Z,0.75
2022-09-15T03:05:29.902Z,0.80
2022-09-15T03:07:58.661Z,1.10
2022-09-15T03:10:27.841Z,0.82
2022-09-15T03:12:56.486Z,0.82
2022-09-15T03:15:30.705Z,0.90
2022-09-15T03:18:04.130Z,1.10
2022-09-15T03:20:32.296Z,0.85
2022-09-15T03:23:00.380Z,0.90
2022-09-15T03:25:29.576Z,1.02
2022-09-15T03:27:58.545Z,1.10
2022-09-15T03:30:27.807Z,1.25
2022-09-15T03:32:56.966Z,1.13
2022-09-15T03:35:26.885Z,1.23
2022-09-15T03:37:54.925Z,0.95
2022-09-15T03:40:23.333Z,1.20
2022-09-15T03:42:51.463Z,1.15
2022-09-15T03:45:22.347Z,1.10
2022-09-15T03:47:52.622Z,1.10
2022-09-15T03:50:20.904Z,1.10
2022-09-15T03:52:49.817Z,1.27
2022-09-15T03:55:18.512Z,1.15
2022-09-15T03:57:47.329Z,1.27
2022-09-15T04:00:16.817Z,1.30
2022-09-15T04:02:52.975Z,1.23
2022-09-15T04:05:21.915Z,1.30
2022-09-15T04:07:51.060Z,1.10
2022-09-15T04:10:20.055Z,1.30
2022-09-15T04:12:48.266Z,1.25
2022-09-15T04:15:16.777Z,1.08
2022-09-15T04:17:44.979Z,1.10
2022-09-15T04:20:17.481Z,1.42
2022-09-15T04:22:45.923Z,1.08
2022-09-15T04:25:14.757Z,1.00
2022-09-15T04:27:43.924Z,0.90
2022-09-15T04:30:12.501Z,1.00
2022-09-15T04:32:40.624Z,1.00
2022-09-15T04:35:09.119Z,1.20
2022-09-15T04:37:38.866Z,1.05
2022-09-15T04:40:10.380Z,1.20
2022-09-15T04:42:38.895Z,0.80
2022-09-15T04:45:07.549Z,1.00
2022-09-15T04:47:36.079Z,1.05
2022-09-15T04:50:06.531Z,1.00
2022-09-15T04:52:34.857Z,0.90
2022-09-15T04:55:05.116Z,0.85
2022-09-15T04:57:36.030Z,1.20
2022-09-15T05:00:08.755Z,1.00
2022-09-15T05:02:38.732Z,1.00
2022-09-15T05:05:08.932Z,1.00
2022-09-15T05:07:36.778Z,1.10
2022-09-15T05:10:06.017Z,1.00
2022-09-15T05:12:35.647Z,1.20
2022-09-15T05:15:08.386Z,0.90
2022-09-15T05:17:37.714Z,0.95
2022-09-15T05:20:06.843Z,1.23
2022-09-15T05:22:40.907Z,1.40
2022-09-15T05:25:11.995Z,1.77
2022-09-15T05:27:40.468Z,1.40
2022-09-15T05:30:35.780Z,1.17
2022-09-15T05:32:57.861Z,1.33
2022-09-15T05:35:26.766Z,1.10
2022-09-15T05:37:55.438Z,1.00
2022-09-15T05:40:25.059Z,1.00
2022-09-15T05:42:52.940Z,1.30
2022-09-15T05:45:22.763Z,1.20
2022-09-15T05:47:51.480Z,0.98
2022-09-15T05:50:19.327Z,1.48
2022-09-15T05:52:53.097Z,1.45
2022-09-15T05:55:22.370Z,1.20
2022-09-15T05:57:53.769Z,1.02
2022-09-15T06:00:24.841Z,1.08
2022-09-15T06:02:52.681Z,1.20
2022-09-15T06:05:21.145Z,1.30
2022-09-15T06:07:49.658Z,1.30
2022-09-15T06:10:19.068Z,1.02
2022-09-15T06:12:50.332Z,1.30
2022-09-15T06:15:18.721Z,1.10
2022-09-15T06:17:47.843Z,0.98
2022-09-15T06:20:18.850Z,1.52
2022-09-15T06:22:46.942Z,1.20
2022-09-15T06:25:15.885Z,1.05
2022-09-15T06:27:44.609Z,1.13
2022-09-15T06:30:32.570Z,1.23
2022-09-15T06:33:00.433Z,1.25
2022-09-15T06:35:28.669Z,1.30
2022-09-15T06:37:58.686Z,1.60
2022-09-15T06:40:27.084Z,1.40
2022-09-15T06:42:57.454Z,1.60
2022-09-15T06:45:25.476Z,1.40
2022-09-15T06:48:07.581Z,1.17
2022-09-15T06:50:42.795Z,1.33
2022-09-15T06:53:12.670Z,0.85
2022-09-15T06:55:42.142Z,0.80
2022-09-15T06:58:11.770Z,1.38
2022-09-15T07:00:40.175Z,1.23
2022-09-15T07:03:10.579Z,1.20
2022-09-15T07:05:38.874Z,1.35
2022-09-15T07:08:07.121Z,2.13
2022-09-15T07:10:35.398Z,1.85
2022-09-15T07:13:03.803Z,4.28
2022-09-15T07:15:32.013Z,5.03
2022-09-15T07:18:00.918Z,4.97
2022-09-15T07:20:28.775Z,5.35
2022-09-15T07:22:56.843Z,5.72
2022-09-15T07:25:26.764Z,5.72
2022-09-15T07:27:54.749Z,5.43
2022-09-15T07:30:22.779Z,5.53
2022-09-15T07:32:53.024Z,5.93
2022-09-15T07:35:22.749Z,5.55
2022-09-15T07:37:52.352Z,5.75
2022-09-15T07:40:20.521Z,5.07
2022-09-15T07:42:49.532Z,5.68
2022-09-15T07:45:18.547Z,5.30
2022-09-15T07:47:46.715Z,5.72
2022-09-15T07:50:15.193Z,5.43
2022-09-15T07:52:43.706Z,5.18
2022-09-15T07:55:13.105Z,5.35
2022-09-15T07:57:41.400Z,6.45
2022-09-15T08:00:10.108Z,5.50
2022-09-15T08:05:09.776Z,7.80
2022-09-15T08:07:37.852Z,6.20
2022-09-15T08:10:06.890Z,5.55
2022-09-15T08:12:36.411Z,6.35
2022-09-15T08:15:05.199Z,5.53
2022-09-15T08:17:35.111Z,5.10
2022-09-15T08:20:04.642Z,3.92
2022-09-15T08:22:33.436Z,9.15
2022-09-15T08:25:01.331Z,7.03
2022-09-15T08:27:29.474Z,10.82
2022-09-15T08:29:58.047Z,12.63
2022-09-15T08:32:26.117Z,8.95
2022-09-15T08:34:54.285Z,5.53
2022-09-15T08:37:22.416Z,5.35
2022-09-15T08:39:50.689Z,4.00
2022-09-15T08:42:21.032Z,4.05
2022-09-15T08:45:09.581Z,12.52
2022-09-15T08:47:48.269Z,8.52
2022-09-15T08:50:40.340Z,4.50
2022-09-15T08:53:35.332Z,3.45
2022-09-15T08:56:14.192Z,3.85
2022-09-15T08:58:46.707Z,3.80
2022-09-15T09:01:39.488Z,2.70
2022-09-15T09:04:55.044Z,2.88
2022-09-15T09:08:07.846Z,2.50
2022-09-15T09:10:59.194Z,2.28
2022-09-15T09:14:00.753Z,2.00
2022-09-15T09:16:50.253Z,2.15
2022-09-15T09:19:34.256Z,2.08
2022-09-15T09:22:23.843Z,1.77
2022-09-15T09:24:56.737Z,1.95
2022-09-15T09:27:29.940Z,1.90
2022-09-15T09:30:04.006Z,1.83
2022-09-15T09:33:08.545Z,2.63
2022-09-15T09:35:45.711Z,2.42
2022-09-15T09:38:32.768Z,1.95
2022-09-15T09:41:02.799Z,1.70
2022-09-15T09:43:32.731Z,1.80
2022-09-15T09:46:02.181Z,2.00
2022-09-15T09:48:30.883Z,1.88
2022-09-15T09:50:58.734Z,6.60
2022-09-15T09:53:34.071Z,3.90
2022-09-15T09:56:29.547Z,2.95
2022-09-15T09:58:57.477Z,1.98
2022-09-15T10:01:26.370Z,2.50
2022-09-15T10:04:19.560Z,2.83
2022-09-15T10:06:48.220Z,2.70
2022-09-15T10:09:19.705Z,2.40
2022-09-15T10:11:59.668Z,2.70
2022-09-15T10:14:42.980Z,2.72
2022-09-15T10:20:50.111Z,2.80
2022-09-15T10:23:18.249Z,2.60
2022-09-15T10:25:59.002Z,2.70
2022-09-15T10:28:28.334Z,2.88
2022-09-15T10:31:13.774Z,2.53
2022-09-15T10:33:48.139Z,2.17
2022-09-15T10:36:24.300Z,2.67
2022-09-15T10:39:21.262Z,2.67
2022-09-15T10:42:10.198Z,3.50
2022-09-15T10:45:19.990Z,3.40
2022-09-15T10:48:23.916Z,3.45
2022-09-15T10:50:55.107Z,3.75
2022-09-15T10:54:14.776Z,3.88
2022-09-15T10:56:50.944Z,4.13
2022-09-15T11:00:11.053Z,4.50
2022-09-15T11:02:51.099Z,5.00
2022-09-15T11:06:06.244Z,5.53
2022-09-15T11:09:14.109Z,5.20
2022-09-15T11:11:44.595Z,5.35
2022-09-15T11:14:32.812Z,6.25
2022-09-15T11:17:10.894Z,5.65
2022-09-15T11:20:04.863Z,6.18
2022-09-15T11:22:49.723Z,6.43
2022-09-15T11:25:32.653Z,6.25
2022-09-15T11:28:17.445Z,6.28
2022-09-15T11:31:31.835Z,6.20
2022-09-15T11:34:41.906Z,6.68
2022-09-15T11:37:17.269Z,7.03
2022-09-15T11:40:02.236Z,6.68
2022-09-15T11:42:35.082Z,6.70
2022-09-15T11:45:03.956Z,7.40
2022-09-15T11:47:49.295Z,7.53
2022-09-15T11:50:53.059Z,7.47
2022-09-15T11:53:54.118Z,7.15
2022-09-15T11:56:38.491Z,7.68
2022-09-15T11:59:34.378Z,8.27
2022-09-15T12:02:38.059Z,7.55
2022-09-15T12:05:24.493Z,7.70
2022-09-15T12:08:12.950Z,7.28
2022-09-15T12:10:46.819Z,6.93
2022-09-15T12:13:35.213Z,6.57
2022-09-15T12:16:12.323Z,4.90
2022-09-15T12:19:12.125Z,3.33
2022-09-15T12:22:48.248Z,2.92
2022-09-15T12:25:25.289Z,2.70
2022-09-15T12:28:52.617Z,2.50
2022-09-15T12:31:26.645Z,2.65
2022-09-15T12:35:18.382Z,2.70
2022-09-15T12:37:58.281Z,2.65
2022-09-15T12:40:42.350Z,2.25
2022-09-15T12:43:13.514Z,3.83
2022-09-15T12:45:52.282Z,2.75
2022-09-15T12:48:35.753Z,2.72
2022-09-15T12:51:09.763Z,2.50
2022-09-15T12:54:16.492Z,2.83
2022-09-15T12:56:54.426Z,2.58
2022-09-15T12:59:28.838Z,2.50
2022-09-15T13:01:57.616Z,2.55
2022-09-15T13:04:54.284Z,2.22
2022-09-15T13:07:36.440Z,2.40
2022-09-15T13:10:13.722Z,2.22
2022-09-15T13:12:53.642Z,2.30
2022-09-15T13:15:25.621Z,2.65
2022-09-15T13:17:55.933Z,2.45
2022-09-15T13:20:31.950Z,2.50
2022-09-15T13:23:01.868Z,3.47
2022-09-15T13:25:30.744Z,2.88
2022-09-15T13:28:03.318Z,2.50
2022-09-15T13:31:01.663Z,2.42
2022-09-15T13:40:44.715Z,2.83
2022-09-15T13:44:01.337Z,2.88
2022-09-15T13:46:56.900Z,2.47
2022-09-15T14:01:26.381Z,2.17
2022-09-15T14:04:03.648Z,2.30
2022-09-15T14:06:41.622Z,2.22
2022-09-15T14:09:27.286Z,2.10
2022-09-15T14:12:03.916Z,2.30
2022-09-15T14:14:44.942Z,2.40
2022-09-15T14:17:22.619Z,2.10
2022-09-15T14:19:58.368Z,2.13
2022-09-15T14:22:37.783Z,2.40
2022-09-15T14:25:16.923Z,2.00
2022-09-15T14:27:55.246Z,1.90
2022-09-15T14:30:38.132Z,1.85
2022-09-15T14:33:17.336Z,2.30
2022-09-15T14:35:46.611Z,2.30
2022-09-15T14:38:24.791Z,1.90
2022-09-15T14:40:58.174Z,1.88
2022-09-15T14:43:28.942Z,1.73
2022-09-15T14:46:09.899Z,1.70
2022-09-15T14:48:38.568Z,1.73
2022-09-15T14:51:28.733Z,1.80
2022-09-15T14:54:00.024Z,2.08
2022-09-15T14:56:36.606Z,1.50
2022-09-15T14:59:12.661Z,1.60
2022-09-15T15:02:03.549Z,1.75
2022-09-15T15:04:43.272Z,1.83
2022-09-15T15:07:37.253Z,1.58
2022-09-15T16:04:53.601Z,1.40
2022-09-15T16:07:23.959Z,1.67
2022-09-15T16:09:54.229Z,1.77
2022-09-15T16:12:22.425Z,1.42
2022-09-15T16:14:51.507Z,2.00
2022-09-15T16:17:19.899Z,3.22
2022-09-15T16:19:49.020Z,2.50
2022-09-15T16:22:21.271Z,2.30
2022-09-15T16:24:49.455Z,1.90
2022-09-15T16:27:19.658Z,1.55
2022-09-15T16:29:48.263Z,1.83
2022-09-15T16:32:22.249Z,1.60
2022-09-15T16:34:52.912Z,1.60
2022-09-15T16:37:22.332Z,1.60
2022-09-15T16:39:53.471Z,1.75
2022-09-15T16:42:21.403Z,1.65
2022-09-15T16:44:49.226Z,1.70
2022-09-15T16:47:17.681Z,1.52
2022-09-15T16:49:45.787Z,1.60
2022-09-15T16:52:17.417Z,1.70
2022-09-15T16:54:45.988Z,1.60
2022-09-15T16:57:18.134Z,2.10
2022-09-15T16:59:46.851Z,1.83
2022-09-15T17:02:16.034Z,1.42
2022-09-15T17:04:45.226Z,1.88
2022-09-15T17:07:18.524Z,1.70
2022-09-15T17:09:50.071Z,1.70
2022-09-15T17:12:20.934Z,1.63
2022-09-15T17:14:49.945Z,1.70
2022-09-15T17:17:25.150Z,1.70
2022-09-15T17:19:54.660Z,2.03
2022-09-15T17:22:23.589Z,1.58
2022-09-15T17:24:51.982Z,1.67
2022-09-15T17:27:21.908Z,1.60
2022-09-15T17:29:49.712Z,1.67
2022-09-15T17:32:18.327Z,1.85
2022-09-15T17:34:50.922Z,1.85
2022-09-15T17:37:19.551Z,1.63
2022-09-15T17:39:50.652Z,1.58
2022-09-15T17:42:19.738Z,1.80
2022-09-15T17:44:47.829Z,1.60
2022-09-15T17:47:16.312Z,1.83
2022-09-15T17:49:46.500Z,1.60
2022-09-15T17:52:14.878Z,1.40
2022-09-15T17:54:42.901Z,1.77
2022-09-15T17:57:12.246Z,1.67
2022-09-15T17:59:40.638Z,1.70
2022-09-15T18:02:19.805Z,1.70
2022-09-15T18:04:48.154Z,1.75
2022-09-15T18:07:16.029Z,1.60
2022-09-15T18:09:44.285Z,1.70
2022-09-15T18:12:15.206Z,1.75
2022-09-15T18:14:45.171Z,1.80
2022-09-15T18:17:13.293Z,2.08
2022-09-15T18:19:42.825Z,1.77
2022-09-15T18:22:14.448Z,1.80
2022-09-15T18:24:43.263Z,1.63
2022-09-15T18:27:12.277Z,1.90
2022-09-15T18:29:43.926Z,1.65
2022-09-15T18:32:33.519Z,1.90
2022-09-15T18:35:24.164Z,1.50
2022-09-15T18:38:01.361Z,1.63
2022-09-15T18:40:31.056Z,1.90
2022-09-15T18:42:59.778Z,1.85
2022-09-15T18:45:28.371Z,1.50
2022-09-15T18:47:57.980Z,1.73
2022-09-15T18:50:28.089Z,1.50
2022-09-15T18:52:56.168Z,1.70
2022-09-15T18:55:25.272Z,1.98
2022-09-15T18:57:56.855Z,1.73
2022-09-15T19:00:28.971Z,1.98
2022-09-15T19:03:06.686Z,1.92
2022-09-15T19:05:37.690Z,1.67
2022-09-15T19:08:08.559Z,1.95
2022-09-15T19:10:39.791Z,2.10
2022-09-15T19:13:10.973Z,1.60
2022-09-15T19:15:44.287Z,2.38
2022-09-15T19:18:14.199Z,2.00
2022-09-15T19:20:43.118Z,1.85
2022-09-15T19:23:11.388Z,2.10
2022-09-15T19:25:43.213Z,1.92
2022-09-15T19:28:11.463Z,2.00
2022-09-15T19:30:39.650Z,2.00
2022-09-15T19:33:08.379Z,2.30
2022-09-15T19:35:41.227Z,2.10
2022-09-15T19:38:10.005Z,2.15
2022-09-15T19:40:38.746Z,1.88
2022-09-15T19:43:07.289Z,2.47
2022-09-15T19:45:37.347Z,2.30
2022-09-15T19:48:05.979Z,2.28
2022-09-15T19:50:34.480Z,2.20
2022-09-15T19:53:02.893Z,2.10
2022-09-15T19:55:31.426Z,2.50
2022-09-15T19:57:59.412Z,2.40
2022-09-15T20:00:29.253Z,2.30
2022-09-15T20:02:58.608Z,2.40
2022-09-15T20:05:27.450Z,2.53
2022-09-15T20:07:55.742Z,2.78
2022-09-15T20:10:23.983Z,2.30
2022-09-15T20:12:53.294Z,2.40
2022-09-15T20:15:23.028Z,2.50
2022-09-15T20:17:54.133Z,2.50
2022-09-15T20:20:23.627Z,2.50
2022-09-15T20:22:53.102Z,2.22
2022-09-15T20:25:24.269Z,2.55
2022-09-15T20:27:53.034Z,2.50
2022-09-15T20:30:23.796Z,2.97
2022-09-15T20:32:52.319Z,2.95
2022-09-15T20:35:20.912Z,3.42
2022-09-15T20:37:49.841Z,3.00
2022-09-15T20:40:19.168Z,2.95
2022-09-15T20:42:48.333Z,3.05
2022-09-15T20:45:18.024Z,2.90
2022-09-15T20:47:46.583Z,2.70
2022-09-15T20:50:17.934Z,7.43
2022-09-15T20:52:52.081Z,6.15
2022-09-15T20:55:20.245Z,3.78
2022-09-15T20:57:48.554Z,3.00
2022-09-15T21:00:20.773Z,2.75
2022-09-15T21:02:52.102Z,2.70
2022-09-15T21:07:48.321Z,2.35
2022-09-15T21:10:17.065Z,2.40
2022-09-15T21:12:45.842Z,2.40
2022-09-15T21:15:14.484Z,2.60
2022-09-15T21:17:42.159Z,2.53
2022-09-15T21:20:11.287Z,2.40
2022-09-15T21:22:39.025Z,2.55
2022-09-15T21:25:11.276Z,2.50
2022-09-15T21:27:42.558Z,2.58
2022-09-15T21:30:11.116Z,2.45
2022-09-15T21:32:39.426Z,2.70
2022-09-15T21:35:08.329Z,2.55
2022-09-15T21:37:36.410Z,2.63
2022-09-15T21:40:07.802Z,2.40
2022-09-15T21:42:36.779Z,2.40
2022-09-15T21:45:08.547Z,2.90
2022-09-15T21:47:36.563Z,2.35
2022-09-15T21:50:05.809Z,2.53
2022-09-15T21:52:33.513Z,2.50
2022-09-15T21:55:02.681Z,2.30
2022-09-15T21:57:32.627Z,2.42
2022-09-15T22:00:00.332Z,2.70
2022-09-15T22:02:28.425Z,2.13
2022-09-15T22:04:59.771Z,2.55
2022-09-15T22:07:29.071Z,2.45
2022-09-15T22:09:57.231Z,2.60
2022-09-15T22:12:26.371Z,2.80
2022-09-15T22:14:54.139Z,2.45
2022-09-15T22:17:22.181Z,2.65
2022-09-15T22:19:49.947Z,2.60
2022-09-15T22:22:17.798Z,2.50
2022-09-15T22:24:47.923Z,2.72
2022-09-15T22:27:16.907Z,2.37
2022-09-15T22:29:46.793Z,2.50
2022-09-15T22:32:15.016Z,2.65
2022-09-15T22:34:43.284Z,2.75
2022-09-15T22:37:11.082Z,2.58
2022-09-15T22:39:57.931Z,2.78
2022-09-15T22:42:27.418Z,2.58
2022-09-15T22:44:55.137Z,3.15
2022-09-15T22:47:22.993Z,2.63
2022-09-15T22:49:51.791Z,2.70
2022-09-15T22:52:21.130Z,2.60
2022-09-15T22:54:49.647Z,2.47
2022-09-15T22:57:18.691Z,3.05
2022-09-15T22:59:46.748Z,3.00
2022-09-15T23:02:15.569Z,2.80
2022-09-15T23:04:43.405Z,2.78
2022-09-15T23:07:14.438Z,2.90
2022-09-15T23:09:42.308Z,2.55
2022-09-15T23:12:10.371Z,2.80
2022-09-15T23:14:38.145Z,2.67
2022-09-15T23:17:05.895Z,3.00
2022-09-15T23:19:33.866Z,2.92
2022-09-15T23:22:01.918Z,2.63
2022-09-15T23:24:29.646Z,2.80
2022-09-15T23:26:58.975Z,2.78
2022-09-15T23:29:27.022Z,2.80
2022-09-15T23:31:57.833Z,2.65
2022-09-15T23:34:26.331Z,2.72
2022-09-15T23:36:54.090Z,2.60
2022-09-15T23:39:24.104Z,3.03
2022-09-15T23:41:52.053Z,3.00
2022-09-15T23:44:20.101Z,2.70
2022-09-15T23:46:49.296Z,2.88
2022-09-15T23:49:18.793Z,2.80
2022-09-15T23:51:46.870Z,2.92
2022-09-15T23:54:14.938Z,2.90
2022-09-15T23:56:43.372Z,2.70
2022-09-15T23:59:11.217Z,2.65
